createdAt,value
2019-04-27T00:01:58.138Z,100000.13
2019-04-27T00:07:05.193Z,100010.32
2019-04-27T00:12:08.745Z,100014.78
2019-04-27T00:17:44.826Z,100013.80
2019-04-27T00:22:44.345Z,100004.23
2019-04-27T00:27:45.904Z,100007.20
2019-04-27T00:32:47.667Z,100000.79
2019-04-27T00:38:13.059Z,100003.08
2019-04-27T00:43:14.988Z,99988.47
2019-04-27T00:48:16.537Z,99978.09
2019-04-27T00:53:18.203Z,99969.05
2019-04-27T00:58:34.225Z,99969.20
2019-04-27T01:03:45.459Z,99976.61
2019-04-27T01:08:47.026Z,99967.88
2019-04-27T01:13:48.700Z,99958.85
2019-04-27T01:18:50.264Z,99970.69
2019-04-27T01:23:51.825Z,99979.09
2019-04-27T01:28:59.194Z,99983.69
2019-04-27T01:34:00.867Z,99973.67
2019-04-27T01:39:06.194Z,99977.75
2019-04-27T01:44:09.221Z,99988.28
2019-04-27T01:49:10.945Z,99973.31
2019-04-27T01:54:15.242Z,99981.56
2019-04-27T01:59:16.900Z,99983.53
2019-04-27T02:04:34.574Z,99980.08
2019-04-27T02:09:36.200Z,99973.50
2019-04-27T02:14:38.978Z,99962.31
2019-04-27T02:19:40.651Z,99957.88
2019-04-27T02:24:42.337Z,99967.09
2019-04-27T02:30:02.217Z,99975.31
2019-04-27T02:35:06.558Z,99976.94
2019-04-27T02:40:20.445Z,99969.89
2019-04-27T02:45:22.356Z,99984.02
2019-04-27T02:50:23.861Z,99983.36
2019-04-27T02:55:25.416Z,99976.61
2019-04-27T03:00:28.814Z,99986.00
2019-04-27T03:05:30.573Z,99984.84
2019-04-27T03:10:32.236Z,99960.84
2019-04-27T03:15:45.072Z,99970.69
2019-04-27T03:20:50.780Z,99963.13
2019-04-27T03:26:12.030Z,99970.19
2019-04-27T03:31:14.280Z,99960.01
2019-04-27T03:36:16.147Z,99961.00
2019-04-27T03:41:19.292Z,99962.31
2019-04-27T03:46:20.895Z,99968.41
2019-04-27T03:51:31.416Z,99972.00
2019-04-27T03:56:55.418Z,99970.55
2019-04-27T04:01:58.911Z,99977.94
2019-04-27T04:07:12.745Z,99987.98
2019-04-27T04:12:26.543Z,99988.33
2019-04-27T04:17:30.712Z,99992.78
2019-04-27T04:22:31.835Z,99990.91
2019-04-27T04:27:33.488Z,99997.69
2019-04-27T04:32:35.152Z,99993.58
2019-04-27T04:37:39.298Z,99996.03
2019-04-27T04:42:45.685Z,99993.40
2019-04-27T04:48:05.886Z,99996.36
2019-04-27T04:53:11.771Z,99997.02
2019-04-27T04:58:10.993Z,99994.09
2019-04-27T05:03:12.543Z,99999.50
2019-04-27T05:08:14.073Z,99997.69
2019-04-27T05:13:15.634Z,100000.97
2019-04-27T05:18:18.949Z,100002.95
2019-04-27T05:23:20.674Z,100003.11
2019-04-27T05:28:22.251Z,100003.28
2019-04-27T05:33:23.817Z,99985.34
2019-04-27T05:38:25.512Z,99984.36
2019-04-27T05:43:34.051Z,99983.52
2019-04-27T05:48:35.898Z,99988.13
2019-04-27T05:53:37.466Z,99983.02
2019-04-27T05:58:39.317Z,99985.80
2019-04-27T06:03:41.234Z,99993.03
2019-04-27T06:08:42.861Z,99984.33
2019-04-27T06:13:44.618Z,99986.92
2019-04-27T06:18:46.163Z,99986.12
2019-04-27T06:23:48.757Z,99969.99
2019-04-27T06:28:50.586Z,99976.91
2019-04-27T06:33:52.148Z,99981.70
2019-04-27T06:38:53.670Z,99978.70
2019-04-27T06:43:55.230Z,99978.84
2019-04-27T06:48:56.795Z,99970.94
2019-04-27T06:53:59.455Z,99977.98
2019-04-27T06:59:01.245Z,99980.58
2019-04-27T07:04:03.200Z,99973.66
2019-04-27T07:09:09.462Z,99984.70
2019-04-27T07:14:11.704Z,99977.94
2019-04-27T07:19:13.490Z,99980.88
2019-04-27T07:24:15.036Z,99981.82
2019-04-27T07:29:16.976Z,99983.78
2019-04-27T07:34:19.038Z,99977.66
2019-04-27T07:39:20.691Z,99979.28
2019-04-27T07:44:34.248Z,99979.42
2019-04-27T07:49:35.778Z,99976.58
2019-04-27T07:54:38.454Z,99977.36
2019-04-27T07:59:42.060Z,99979.00
2019-04-27T08:04:43.830Z,99978.66
2019-04-27T08:09:45.383Z,99972.36
2019-04-27T08:14:48.958Z,99975.61
2019-04-27T08:19:51.550Z,99969.36
2019-04-27T08:24:54.324Z,99967.30
2019-04-27T08:30:12.161Z,99962.80
2019-04-27T08:35:13.878Z,99962.24
2019-04-27T08:40:15.822Z,99959.85
2019-04-27T08:45:19.316Z,99956.37
2019-04-27T08:50:21.198Z,99955.84
2019-04-27T08:55:22.880Z,99962.59
2019-04-27T09:00:24.561Z,99960.28
2019-04-27T09:05:26.196Z,99949.09
2019-04-27T09:10:42.035Z,99953.95
2019-04-27T09:15:57.143Z,99949.00
2019-04-27T09:21:00.361Z,99956.62
2019-04-27T09:26:01.940Z,99948.27
2019-04-27T09:31:04.144Z,99951.31
2019-04-27T09:36:06.157Z,99938.73
2019-04-27T09:41:08.142Z,99940.59
2019-04-27T09:46:09.713Z,99939.73
2019-04-27T09:51:11.276Z,99946.11
2019-04-27T09:56:12.907Z,99932.23
2019-04-27T10:01:15.809Z,99932.30
2019-04-27T10:06:18.084Z,99922.89
2019-04-27T10:11:19.657Z,99918.91
2019-04-27T10:16:21.350Z,99915.41
2019-04-27T10:21:23.033Z,99913.13
2019-04-27T10:26:25.935Z,99906.71
2019-04-27T10:31:27.563Z,99914.02
2019-04-27T10:36:40.800Z,99915.77
2019-04-27T10:41:42.405Z,99913.70
2019-04-27T10:46:44.798Z,99904.48
2019-04-27T10:51:46.375Z,99904.03
2019-04-27T10:56:47.920Z,99901.85
2019-04-27T11:01:49.910Z,99897.22
2019-04-27T11:07:00.449Z,99891.89
2019-04-27T11:12:02.123Z,99885.97
2019-04-27T11:17:06.448Z,99884.95
2019-04-27T11:22:08.277Z,99872.84
2019-04-27T11:27:09.869Z,99866.98
2019-04-27T11:32:11.447Z,99868.74
2019-04-27T11:37:14.685Z,99872.95
2019-04-27T11:42:16.476Z,99866.63
2019-04-27T11:47:18.170Z,99860.72
2019-04-27T11:52:19.720Z,99838.11
2019-04-27T11:57:21.310Z,99838.11
2019-04-27T12:02:22.915Z,99836.05
2019-04-27T12:07:24.477Z,99829.11
2019-04-27T12:12:26.250Z,99829.15
2019-04-27T12:17:29.253Z,99820.17
2019-04-27T12:22:30.919Z,99822.25
2019-04-27T12:27:42.127Z,99817.59
2019-04-27T12:32:45.340Z,99810.83
2019-04-27T12:37:47.349Z,99805.80
2019-04-27T12:42:49.019Z,99796.80
2019-04-27T12:47:50.575Z,99809.77
2019-04-27T12:52:56.154Z,99855.50
2019-04-27T12:58:06.514Z,99854.11
2019-04-27T13:03:08.068Z,99852.38
2019-04-27T13:08:09.617Z,99853.50
2019-04-27T13:13:11.259Z,99850.17
2019-04-27T13:18:12.815Z,99847.23
2019-04-27T13:23:14.378Z,99840.00
2019-04-27T13:28:16.044Z,99823.27
2019-04-27T13:33:17.726Z,99832.70
2019-04-27T13:38:19.297Z,99820.73
2019-04-27T13:43:27.090Z,99817.25
2019-04-27T13:48:51.136Z,99808.11
2019-04-27T13:53:51.754Z,99787.55
2019-04-27T13:58:53.288Z,99770.69
2019-04-27T14:03:54.832Z,99758.11
2019-04-27T14:08:56.412Z,99756.89
2019-04-27T14:13:57.953Z,99753.30
2019-04-27T14:18:59.523Z,99755.94
2019-04-27T14:24:01.053Z,99750.98
2019-04-27T14:29:02.809Z,99755.79
2019-04-27T14:34:04.469Z,99751.53
2019-04-27T14:39:09.434Z,99742.17
2019-04-27T14:44:11.139Z,99724.83
2019-04-27T14:49:15.505Z,99722.33
2019-04-27T14:54:17.194Z,99722.78
2019-04-27T14:59:18.850Z,99707.91
2019-04-27T15:04:20.572Z,99704.74
2019-04-27T15:09:23.925Z,99703.12
2019-04-27T15:14:25.789Z,99696.81
2019-04-27T15:19:33.160Z,99687.48
2019-04-27T15:24:34.957Z,99687.98
2019-04-27T15:29:36.519Z,99687.30
2019-04-27T15:35:05.309Z,99681.34
2019-04-27T15:40:33.818Z,99683.26
2019-04-27T15:45:35.582Z,99678.38
2019-04-27T15:50:38.710Z,99681.28
2019-04-27T15:55:40.414Z,99726.96
2019-04-27T16:00:41.970Z,99753.20
2019-04-27T16:05:43.694Z,99750.75
2019-04-27T16:10:45.327Z,99763.13
2019-04-27T16:15:50.151Z,99762.59
2019-04-27T16:20:50.489Z,99756.03
2019-04-27T16:25:52.162Z,99755.56
2019-04-27T16:30:54.181Z,99752.88
2019-04-27T16:35:59.489Z,99763.31
2019-04-27T16:41:03.185Z,99780.27
2019-04-27T16:46:04.640Z,99808.13
2019-04-27T16:51:08.679Z,99807.43
2019-04-27T16:56:15.104Z,99814.02
2019-04-27T17:01:33.639Z,99817.97
2019-04-27T17:07:42.004Z,99829.55
2019-04-27T17:12:45.903Z,99803.53
2019-04-27T17:18:09.487Z,99803.05
2019-04-27T17:23:11.012Z,99809.97
2019-04-27T17:28:15.922Z,99807.73
2019-04-27T17:33:30.704Z,99818.25
2019-04-27T17:38:32.355Z,99824.58
2019-04-27T17:43:37.458Z,99824.89
2019-04-27T17:48:38.072Z,99816.38
2019-04-27T17:53:39.688Z,99814.33
2019-04-27T17:58:41.239Z,99820.09
2019-04-27T18:03:42.785Z,99813.20
2019-04-27T18:08:44.334Z,99806.89
2019-04-27T18:13:46.097Z,99806.77
2019-04-27T18:19:12.183Z,99805.41
2019-04-27T18:24:18.535Z,99820.82
2019-04-27T18:29:22.924Z,99842.70
2019-04-27T18:34:23.517Z,99848.50
2019-04-27T18:39:25.171Z,99849.37
2019-04-27T18:44:30.514Z,99856.66
2019-04-27T18:49:38.631Z,99856.84
2019-04-27T18:54:42.176Z,99859.65
2019-04-27T18:59:43.752Z,99862.16
2019-04-27T19:04:45.284Z,99861.84
2019-04-27T19:09:49.428Z,99869.86
2019-04-27T19:14:50.248Z,99876.97
2019-04-27T19:19:51.787Z,99865.13
2019-04-27T19:24:53.416Z,99865.80
2019-04-27T19:29:58.890Z,99861.52
2019-04-27T19:35:00.486Z,99867.00
2019-04-27T19:40:02.124Z,99865.03
2019-04-27T19:45:04.372Z,99870.80
2019-04-27T19:50:06.042Z,99874.79
2019-04-27T19:55:08.512Z,99876.98
2019-04-27T20:00:22.189Z,99868.80
2019-04-27T20:05:24.232Z,99870.57
2019-04-27T20:10:25.763Z,99873.47
2019-04-27T20:15:27.318Z,99889.50
2019-04-27T20:20:28.867Z,99917.97
2019-04-27T20:25:31.300Z,99922.14
2019-04-27T20:30:33.204Z,99923.12
2019-04-27T20:35:34.840Z,99912.13
2019-04-27T20:40:36.407Z,99919.88
2019-04-27T20:45:37.950Z,99908.69
2019-04-27T20:50:41.143Z,99918.73
2019-04-27T20:55:42.956Z,99912.48
2019-04-27T21:00:44.522Z,99908.36
2019-04-27T21:06:21.242Z,99932.37
2019-04-27T21:11:22.828Z,99943.05
2019-04-27T21:16:24.351Z,99961.83
2019-04-27T21:21:25.891Z,99975.98
2019-04-27T21:26:27.445Z,99977.28
2019-04-27T21:31:28.994Z,99973.52
2019-04-27T21:36:31.018Z,99973.02
2019-04-27T21:41:32.814Z,99972.67
2019-04-27T21:46:34.947Z,99979.91
2019-04-27T21:51:56.208Z,99985.67
2019-04-27T21:56:57.747Z,99993.70
2019-04-27T22:02:02.259Z,99992.70
2019-04-27T22:07:04.005Z,99995.67
2019-04-27T22:12:05.658Z,100002.09
2019-04-27T22:17:07.385Z,99993.22
2019-04-27T22:22:17.841Z,99988.80
2019-04-27T22:27:20.704Z,99998.50
2019-04-27T22:32:22.413Z,99999.16
2019-04-27T22:37:23.958Z,99996.83
2019-04-27T22:42:43.770Z,100004.70
2019-04-27T22:47:45.296Z,100011.45
2019-04-27T22:52:46.957Z,100012.42
2019-04-27T22:57:54.132Z,100021.30
2019-04-27T23:02:58.693Z,100023.75
2019-04-27T23:08:01.937Z,100028.33
2019-04-27T23:13:03.790Z,100038.82
2019-04-27T23:18:05.459Z,100043.74
2019-04-27T23:23:07.026Z,100051.17
2019-04-27T23:28:08.583Z,100055.59
2019-04-27T23:33:11.155Z,100055.09
2019-04-27T23:38:17.276Z,100047.69
2019-04-27T23:43:16.285Z,100052.48
2019-04-27T23:48:17.858Z,100039.04
2019-04-27T23:53:21.927Z,100042.48
2019-04-27T23:58:23.618Z,100045.44
